sensor_id;sensor_type;location;lat;lon;timestamp;temperature;humidity
38118;DHT22;23928;47.562;7.508;2023-05-07T00:00:24;14.60;99.90
38118;DHT22;23928;47.562;7.508;2023-05-07T00:02:51;14.20;99.90
38118;DHT22;23928;47.562;7.508;2023-05-07T00:05:16;14.10;99.90
38118;DHT22;23928;47.562;7.508;2023-05-07T00:07:42;14.10;99.90
38118;DHT22;23928;47.562;7.508;2023-05-07T00:10:09;13.90;99.90
38118;DHT22;23928;47.562;7.508;2023-05-07T00:12:35;13.70;99.90
38118;DHT22;23928;47.562;7.508;2023-05-07T00:15:04;13.70;99.90
38118;DHT22;23928;47.562;7.508;2023-05-07T00:17:30;13.80;99.90
38118;DHT22;23928;47.562;7.508;2023-05-07T00:19:56;13.80;99.90
38118;DHT22;23928;47.562;7.508;2023-05-07T00:22:21;13.70;99.90
38118;DHT22;23928;47.562;7.508;2023-05-07T00:24:47;13.70;99.90
38118;DHT22;23928;47.562;7.508;2023-05-07T00:27:12;13.60;99.90
38118;DHT22;23928;47.562;7.508;2023-05-07T00:29:38;13.50;99.90
38118;DHT22;23928;47.562;7.508;2023-05-07T00:32:04;13.50;99.90
38118;DHT22;23928;47.562;7.508;2023-05-07T00:34:29;13.40;99.90
38118;DHT22;23928;47.562;7.508;2023-05-07T00:36:55;13.60;99.90
38118;DHT22;23928;47.562;7.508;2023-05-07T00:39:21;13.40;99.90
38118;DHT22;23928;47.562;7.508;2023-05-07T00:41:46;13.40;99.90
38118;DHT22;23928;47.562;7.508;2023-05-07T00:44:12;13.30;99.90
38118;DHT22;23928;47.562;7.508;2023-05-07T00:46:38;13.30;99.90
38118;DHT22;23928;47.562;7.508;2023-05-07T00:49:04;13.30;99.90
38118;DHT22;23928;47.562;7.508;2023-05-07T00:51:30;13.30;99.90
38118;DHT22;23928;47.562;7.508;2023-05-07T00:53:56;13.10;99.90
38118;DHT22;23928;47.562;7.508;2023-05-07T00:56:22;13.10;99.90
38118;DHT22;23928;47.562;7.508;2023-05-07T00:58:48;13.10;99.90
38118;DHT22;23928;47.562;7.508;2023-05-07T01:01:14;13.30;99.90
38118;DHT22;23928;47.562;7.508;2023-05-07T01:03:42;13.40;99.90
38118;DHT22;23928;47.562;7.508;2023-05-07T01:06:08;13.70;99.90
38118;DHT22;23928;47.562;7.508;2023-05-07T01:08:35;13.80;99.90
38118;DHT22;23928;47.562;7.508;2023-05-07T01:11:02;13.80;99.90
38118;DHT22;23928;47.562;7.508;2023-05-07T01:13:29;13.70;99.90
38118;DHT22;23928;47.562;7.508;2023-05-07T01:15:55;13.40;99.90
38118;DHT22;23928;47.562;7.508;2023-05-07T01:18:21;13.30;99.90
38118;DHT22;23928;47.562;7.508;2023-05-07T01:20:47;13.20;99.90
38118;DHT22;23928;47.562;7.508;2023-05-07T01:23:13;13.00;99.90
38118;DHT22;23928;47.562;7.508;2023-05-07T01:25:38;13.00;99.90
38118;DHT22;23928;47.562;7.508;2023-05-07T01:28:04;12.90;99.90
38118;DHT22;23928;47.562;7.508;2023-05-07T01:30:31;12.90;99.90
38118;DHT22;23928;47.562;7.508;2023-05-07T01:35:36;12.80;99.90
38118;DHT22;23928;47.562;7.508;2023-05-07T01:38:03;12.80;99.90
38118;DHT22;23928;47.562;7.508;2023-05-07T01:40:30;12.90;99.90
38118;DHT22;23928;47.562;7.508;2023-05-07T01:42:55;12.70;99.90
38118;DHT22;23928;47.562;7.508;2023-05-07T01:45:21;12.50;99.90
38118;DHT22;23928;47.562;7.508;2023-05-07T01:47:48;12.60;99.90
38118;DHT22;23928;47.562;7.508;2023-05-07T01:50:17;12.70;99.90
38118;DHT22;23928;47.562;7.508;2023-05-07T01:52:43;12.80;99.90
38118;DHT22;23928;47.562;7.508;2023-05-07T01:55:09;12.60;99.90
38118;DHT22;23928;47.562;7.508;2023-05-07T01:57:35;12.70;99.90
38118;DHT22;23928;47.562;7.508;2023-05-07T02:00:01;12.70;99.90
38118;DHT22;23928;47.562;7.508;2023-05-07T02:02:28;12.60;99.90
38118;DHT22;23928;47.562;7.508;2023-05-07T02:04:53;12.60;99.90
38118;DHT22;23928;47.562;7.508;2023-05-07T02:07:19;12.60;99.90
38118;DHT22;23928;47.562;7.508;2023-05-07T02:09:44;12.60;99.90
38118;DHT22;23928;47.562;7.508;2023-05-07T02:12:10;12.40;99.90
38118;DHT22;23928;47.562;7.508;2023-05-07T02:14:36;12.40;99.90
38118;DHT22;23928;47.562;7.508;2023-05-07T02:17:01;12.40;99.90
38118;DHT22;23928;47.562;7.508;2023-05-07T02:19:27;12.40;99.90
38118;DHT22;23928;47.562;7.508;2023-05-07T02:21:53;12.20;99.90
38118;DHT22;23928;47.562;7.508;2023-05-07T02:24:19;12.30;99.90
38118;DHT22;23928;47.562;7.508;2023-05-07T02:26:45;12.30;99.90
38118;DHT22;23928;47.562;7.508;2023-05-07T02:29:11;12.30;99.90
38118;DHT22;23928;47.562;7.508;2023-05-07T02:31:36;12.50;99.90
38118;DHT22;23928;47.562;7.508;2023-05-07T02:34:02;12.50;99.90
38118;DHT22;23928;47.562;7.508;2023-05-07T02:36:27;12.40;99.90
38118;DHT22;23928;47.562;7.508;2023-05-07T02:38:54;12.20;99.90
38118;DHT22;23928;47.562;7.508;2023-05-07T02:41:19;12.20;99.90
38118;DHT22;23928;47.562;7.508;2023-05-07T02:43:46;12.20;99.90
38118;DHT22;23928;47.562;7.508;2023-05-07T02:46:11;12.20;99.90
38118;DHT22;23928;47.562;7.508;2023-05-07T02:48:37;12.10;99.90
38118;DHT22;23928;47.562;7.508;2023-05-07T02:51:03;12.10;99.90
38118;DHT22;23928;47.562;7.508;2023-05-07T02:53:29;12.10;99.90
38118;DHT22;23928;47.562;7.508;2023-05-07T02:55:59;12.10;99.90
38118;DHT22;23928;47.562;7.508;2023-05-07T02:58:26;12.10;99.90
38118;DHT22;23928;47.562;7.508;2023-05-07T03:00:52;12.00;99.90
38118;DHT22;23928;47.562;7.508;2023-05-07T03:03:17;12.00;99.90
38118;DHT22;23928;47.562;7.508;2023-05-07T03:05:43;12.10;99.90
38118;DHT22;23928;47.562;7.508;2023-05-07T03:08:09;12.00;99.90
38118;DHT22;23928;47.562;7.508;2023-05-07T03:10:36;12.10;99.90
38118;DHT22;23928;47.562;7.508;2023-05-07T03:13:02;12.00;99.90
38118;DHT22;23928;47.562;7.508;2023-05-07T03:15:28;12.00;99.90
38118;DHT22;23928;47.562;7.508;2023-05-07T03:17:54;12.00;99.90
38118;DHT22;23928;47.562;7.508;2023-05-07T03:20:19;12.00;99.90
38118;DHT22;23928;47.562;7.508;2023-05-07T03:22:45;12.00;99.90
38118;DHT22;23928;47.562;7.508;2023-05-07T03:25:11;12.00;99.90
38118;DHT22;23928;47.562;7.508;2023-05-07T03:27:36;12.00;99.90
38118;DHT22;23928;47.562;7.508;2023-05-07T03:30:03;11.90;99.90
38118;DHT22;23928;47.562;7.508;2023-05-07T03:32:29;12.00;99.90
38118;DHT22;23928;47.562;7.508;2023-05-07T03:34:55;12.00;99.90
38118;DHT22;23928;47.562;7.508;2023-05-07T03:37:21;12.00;99.90
38118;DHT22;23928;47.562;7.508;2023-05-07T03:39:47;12.00;99.90
38118;DHT22;23928;47.562;7.508;2023-05-07T03:42:12;12.10;99.90
38118;DHT22;23928;47.562;7.508;2023-05-07T03:44:38;12.00;99.90
38118;DHT22;23928;47.562;7.508;2023-05-07T03:47:04;12.10;99.90
38118;DHT22;23928;47.562;7.508;2023-05-07T03:49:29;11.90;99.90
38118;DHT22;23928;47.562;7.508;2023-05-07T03:51:55;12.00;99.90
38118;DHT22;23928;47.562;7.508;2023-05-07T03:54:21;12.00;99.90
38118;DHT22;23928;47.562;7.508;2023-05-07T03:56:46;12.00;99.90
38118;DHT22;23928;47.562;7.508;2023-05-07T03:59:12;11.90;99.90
38118;DHT22;23928;47.562;7.508;2023-05-07T04:01:38;11.80;99.90
38118;DHT22;23928;47.562;7.508;2023-05-07T04:04:04;11.80;99.90
38118;DHT22;23928;47.562;7.508;2023-05-07T04:06:30;11.90;99.90
38118;DHT22;23928;47.562;7.508;2023-05-07T04:08:56;11.90;99.90
38118;DHT22;23928;47.562;7.508;2023-05-07T04:11:22;11.90;99.90
38118;DHT22;23928;47.562;7.508;2023-05-07T04:13:47;12.00;99.90
38118;DHT22;23928;47.562;7.508;2023-05-07T04:16:13;11.90;99.90
38118;DHT22;23928;47.562;7.508;2023-05-07T04:18:38;12.00;99.90
38118;DHT22;23928;47.562;7.508;2023-05-07T04:21:04;12.10;99.90
38118;DHT22;23928;47.562;7.508;2023-05-07T04:23:30;12.10;99.90
38118;DHT22;23928;47.562;7.508;2023-05-07T04:25:56;12.20;99.90
38118;DHT22;23928;47.562;7.508;2023-05-07T04:28:22;12.10;99.90
38118;DHT22;23928;47.562;7.508;2023-05-07T04:30:48;12.30;99.90
38118;DHT22;23928;47.562;7.508;2023-05-07T04:33:14;12.40;99.90
38118;DHT22;23928;47.562;7.508;2023-05-07T04:35:42;12.40;99.90
38118;DHT22;23928;47.562;7.508;2023-05-07T04:38:07;12.50;99.90
38118;DHT22;23928;47.562;7.508;2023-05-07T04:40:35;12.70;99.90
38118;DHT22;23928;47.562;7.508;2023-05-07T04:43:00;12.70;99.90
38118;DHT22;23928;47.562;7.508;2023-05-07T04:45:26;12.80;99.90
38118;DHT22;23928;47.562;7.508;2023-05-07T04:47:52;12.70;99.90
38118;DHT22;23928;47.562;7.508;2023-05-07T04:50:17;12.90;99.90
38118;DHT22;23928;47.562;7.508;2023-05-07T04:52:44;12.70;99.90
38118;DHT22;23928;47.562;7.508;2023-05-07T04:55:10;12.80;99.90
38118;DHT22;23928;47.562;7.508;2023-05-07T04:57:36;12.60;99.90
38118;DHT22;23928;47.562;7.508;2023-05-07T05:00:03;12.70;99.90
38118;DHT22;23928;47.562;7.508;2023-05-07T05:02:29;12.90;99.90
38118;DHT22;23928;47.562;7.508;2023-05-07T05:04:55;13.10;99.90
38118;DHT22;23928;47.562;7.508;2023-05-07T05:07:20;13.30;99.90
38118;DHT22;23928;47.562;7.508;2023-05-07T05:09:46;13.40;99.90
38118;DHT22;23928;47.562;7.508;2023-05-07T05:12:11;13.30;99.90
38118;DHT22;23928;47.562;7.508;2023-05-07T05:14:37;13.30;99.90
38118;DHT22;23928;47.562;7.508;2023-05-07T05:17:03;13.20;99.90
38118;DHT22;23928;47.562;7.508;2023-05-07T05:19:28;13.40;99.90
38118;DHT22;23928;47.562;7.508;2023-05-07T05:21:54;13.50;99.90
38118;DHT22;23928;47.562;7.508;2023-05-07T05:24:19;13.50;99.90
38118;DHT22;23928;47.562;7.508;2023-05-07T05:26:45;13.40;99.90
38118;DHT22;23928;47.562;7.508;2023-05-07T05:29:11;13.30;99.90
38118;DHT22;23928;47.562;7.508;2023-05-07T05:31:36;13.50;99.90
38118;DHT22;23928;47.562;7.508;2023-05-07T05:34:02;13.50;99.90
38118;DHT22;23928;47.562;7.508;2023-05-07T05:36:28;13.60;99.90
38118;DHT22;23928;47.562;7.508;2023-05-07T05:38:55;13.60;99.90
38118;DHT22;23928;47.562;7.508;2023-05-07T05:41:21;13.60;99.90
38118;DHT22;23928;47.562;7.508;2023-05-07T05:43:47;13.50;99.90
38118;DHT22;23928;47.562;7.508;2023-05-07T05:46:12;13.50;99.90
38118;DHT22;23928;47.562;7.508;2023-05-07T05:48:38;13.60;99.90
38118;DHT22;23928;47.562;7.508;2023-05-07T05:51:03;13.70;99.90
38118;DHT22;23928;47.562;7.508;2023-05-07T05:53:29;13.70;99.90
38118;DHT22;23928;47.562;7.508;2023-05-07T05:55:54;13.70;99.90
38118;DHT22;23928;47.562;7.508;2023-05-07T05:58:20;13.70;99.90
38118;DHT22;23928;47.562;7.508;2023-05-07T06:00:46;13.70;99.90
38118;DHT22;23928;47.562;7.508;2023-05-07T06:03:13;13.70;99.90
38118;DHT22;23928;47.562;7.508;2023-05-07T06:05:39;13.80;99.90
38118;DHT22;23928;47.562;7.508;2023-05-07T06:08:04;13.90;99.90
38118;DHT22;23928;47.562;7.508;2023-05-07T06:10:30;13.80;99.90
38118;DHT22;23928;47.562;7.508;2023-05-07T06:12:56;13.90;99.90
38118;DHT22;23928;47.562;7.508;2023-05-07T06:15:21;14.10;99.90
38118;DHT22;23928;47.562;7.508;2023-05-07T06:17:47;14.30;99.90
38118;DHT22;23928;47.562;7.508;2023-05-07T06:20:14;14.50;99.90
38118;DHT22;23928;47.562;7.508;2023-05-07T06:22:39;14.40;99.90
38118;DHT22;23928;47.562;7.508;2023-05-07T06:25:05;14.70;99.90
38118;DHT22;23928;47.562;7.508;2023-05-07T06:27:31;14.90;99.90
38118;DHT22;23928;47.562;7.508;2023-05-07T06:29:57;15.20;99.90
38118;DHT22;23928;47.562;7.508;2023-05-07T06:32:23;15.40;99.90
38118;DHT22;23928;47.562;7.508;2023-05-07T06:34:48;15.50;99.90
38118;DHT22;23928;47.562;7.508;2023-05-07T06:37:14;15.50;99.90
38118;DHT22;23928;47.562;7.508;2023-05-07T06:39:39;15.70;99.90
38118;DHT22;23928;47.562;7.508;2023-05-07T06:42:05;16.00;99.90
38118;DHT22;23928;47.562;7.508;2023-05-07T06:44:31;16.10;99.90
38118;DHT22;23928;47.562;7.508;2023-05-07T06:46:57;16.40;99.90
38118;DHT22;23928;47.562;7.508;2023-05-07T06:49:22;16.40;99.90
38118;DHT22;23928;47.562;7.508;2023-05-07T06:51:48;16.50;99.90
38118;DHT22;23928;47.562;7.508;2023-05-07T06:54:14;16.60;99.90
38118;DHT22;23928;47.562;7.508;2023-05-07T06:56:39;16.60;99.90
38118;DHT22;23928;47.562;7.508;2023-05-07T06:59:06;16.70;99.90
38118;DHT22;23928;47.562;7.508;2023-05-07T07:01:31;16.60;99.90
38118;DHT22;23928;47.562;7.508;2023-05-07T07:03:57;16.50;99.90
38118;DHT22;23928;47.562;7.508;2023-05-07T07:06:23;16.60;99.90
38118;DHT22;23928;47.562;7.508;2023-05-07T07:08:48;16.70;99.90
38118;DHT22;23928;47.562;7.508;2023-05-07T07:11:15;16.90;99.90
38118;DHT22;23928;47.562;7.508;2023-05-07T07:13:41;16.80;99.90
38118;DHT22;23928;47.562;7.508;2023-05-07T07:16:08;16.90;99.90
38118;DHT22;23928;47.562;7.508;2023-05-07T07:18:33;17.00;99.90
38118;DHT22;23928;47.562;7.508;2023-05-07T07:20:59;17.10;99.90
38118;DHT22;23928;47.562;7.508;2023-05-07T07:23:25;17.10;99.90
38118;DHT22;23928;47.562;7.508;2023-05-07T07:25:50;17.00;99.90
38118;DHT22;23928;47.562;7.508;2023-05-07T07:28:16;17.20;99.90
38118;DHT22;23928;47.562;7.508;2023-05-07T07:30:42;17.40;99.90
38118;DHT22;23928;47.562;7.508;2023-05-07T07:33:07;17.40;99.90
38118;DHT22;23928;47.562;7.508;2023-05-07T07:35:33;17.40;99.90
38118;DHT22;23928;47.562;7.508;2023-05-07T07:37:59;17.50;99.90
38118;DHT22;23928;47.562;7.508;2023-05-07T07:40:25;17.40;99.90
38118;DHT22;23928;47.562;7.508;2023-05-07T07:42:51;17.70;99.90
38118;DHT22;23928;47.562;7.508;2023-05-07T07:45:17;18.10;99.90
38118;DHT22;23928;47.562;7.508;2023-05-07T07:47:42;18.10;99.90
38118;DHT22;23928;47.562;7.508;2023-05-07T07:50:08;18.30;99.90
38118;DHT22;23928;47.562;7.508;2023-05-07T07:52:34;17.90;99.90
38118;DHT22;23928;47.562;7.508;2023-05-07T07:55:00;17.90;99.90
38118;DHT22;23928;47.562;7.508;2023-05-07T07:57:25;18.00;99.90
38118;DHT22;23928;47.562;7.508;2023-05-07T07:59:51;18.20;99.90
38118;DHT22;23928;47.562;7.508;2023-05-07T08:02:17;18.10;99.90
38118;DHT22;23928;47.562;7.508;2023-05-07T08:04:43;18.40;99.90
38118;DHT22;23928;47.562;7.508;2023-05-07T08:07:09;18.30;99.90
38118;DHT22;23928;47.562;7.508;2023-05-07T08:09:36;18.30;99.90
38118;DHT22;23928;47.562;7.508;2023-05-07T08:12:02;18.30;99.90
38118;DHT22;23928;47.562;7.508;2023-05-07T08:14:28;18.20;99.90
38118;DHT22;23928;47.562;7.508;2023-05-07T08:16:54;18.30;99.90
38118;DHT22;23928;47.562;7.508;2023-05-07T08:19:20;18.30;99.90
38118;DHT22;23928;47.562;7.508;2023-05-07T08:21:45;18.20;99.90
38118;DHT22;23928;47.562;7.508;2023-05-07T08:24:13;18.20;99.90
38118;DHT22;23928;47.562;7.508;2023-05-07T08:26:39;18.20;99.90
38118;DHT22;23928;47.562;7.508;2023-05-07T08:29:05;18.10;99.90
38118;DHT22;23928;47.562;7.508;2023-05-07T08:31:31;18.10;99.90
38118;DHT22;23928;47.562;7.508;2023-05-07T08:33:57;18.10;99.90
38118;DHT22;23928;47.562;7.508;2023-05-07T08:36:23;18.10;99.90
38118;DHT22;23928;47.562;7.508;2023-05-07T08:38:49;18.30;99.90
38118;DHT22;23928;47.562;7.508;2023-05-07T08:41:15;18.50;99.90
38118;DHT22;23928;47.562;7.508;2023-05-07T08:43:41;18.60;99.90
38118;DHT22;23928;47.562;7.508;2023-05-07T08:46:09;18.50;99.90
38118;DHT22;23928;47.562;7.508;2023-05-07T08:48:36;18.40;99.90
38118;DHT22;23928;47.562;7.508;2023-05-07T08:51:02;18.70;99.90
38118;DHT22;23928;47.562;7.508;2023-05-07T08:53:28;19.00;99.90
38118;DHT22;23928;47.562;7.508;2023-05-07T08:55:54;18.90;99.90
38118;DHT22;23928;47.562;7.508;2023-05-07T08:58:20;18.90;99.90
38118;DHT22;23928;47.562;7.508;2023-05-07T09:00:47;18.80;99.90
38118;DHT22;23928;47.562;7.508;2023-05-07T09:03:12;18.70;99.90
38118;DHT22;23928;47.562;7.508;2023-05-07T09:05:39;19.00;99.90
38118;DHT22;23928;47.562;7.508;2023-05-07T09:08:06;19.20;99.90
38118;DHT22;23928;47.562;7.508;2023-05-07T09:10:33;19.20;99.90
38118;DHT22;23928;47.562;7.508;2023-05-07T09:12:59;19.30;99.90
38118;DHT22;23928;47.562;7.508;2023-05-07T09:15:26;19.20;99.90
38118;DHT22;23928;47.562;7.508;2023-05-07T09:17:53;19.40;99.90
38118;DHT22;23928;47.562;7.508;2023-05-07T09:20:18;19.60;99.90
38118;DHT22;23928;47.562;7.508;2023-05-07T09:22:44;19.60;99.90
38118;DHT22;23928;47.562;7.508;2023-05-07T09:25:10;20.20;99.90
38118;DHT22;23928;47.562;7.508;2023-05-07T09:27:36;20.10;99.90
38118;DHT22;23928;47.562;7.508;2023-05-07T09:30:06;20.20;99.90
38118;DHT22;23928;47.562;7.508;2023-05-07T09:32:35;19.90;99.90
38118;DHT22;23928;47.562;7.508;2023-05-07T09:35:01;20.00;99.90
38118;DHT22;23928;47.562;7.508;2023-05-07T09:37:30;20.10;99.90
38118;DHT22;23928;47.562;7.508;2023-05-07T09:39:56;19.50;99.90
38118;DHT22;23928;47.562;7.508;2023-05-07T09:42:25;19.50;99.90
38118;DHT22;23928;47.562;7.508;2023-05-07T09:44:52;19.70;99.90
38118;DHT22;23928;47.562;7.508;2023-05-07T09:47:19;19.70;99.90
38118;DHT22;23928;47.562;7.508;2023-05-07T09:49:47;19.70;99.90
38118;DHT22;23928;47.562;7.508;2023-05-07T09:52:14;19.70;99.90
38118;DHT22;23928;47.562;7.508;2023-05-07T09:54:40;19.40;99.90
38118;DHT22;23928;47.562;7.508;2023-05-07T09:57:10;19.50;99.90
38118;DHT22;23928;47.562;7.508;2023-05-07T09:59:37;19.10;99.90
38118;DHT22;23928;47.562;7.508;2023-05-07T10:02:04;19.50;99.90
38118;DHT22;23928;47.562;7.508;2023-05-07T10:04:31;19.60;99.90
38118;DHT22;23928;47.562;7.508;2023-05-07T10:06:57;19.50;99.90
38118;DHT22;23928;47.562;7.508;2023-05-07T10:09:25;19.50;99.90
38118;DHT22;23928;47.562;7.508;2023-05-07T10:11:51;19.20;99.90
38118;DHT22;23928;47.562;7.508;2023-05-07T10:14:17;19.40;99.90
38118;DHT22;23928;47.562;7.508;2023-05-07T10:16:43;19.30;99.90
38118;DHT22;23928;47.562;7.508;2023-05-07T10:19:09;19.20;99.90
38118;DHT22;23928;47.562;7.508;2023-05-07T10:21:39;19.60;99.90
38118;DHT22;23928;47.562;7.508;2023-05-07T10:24:12;19.50;99.90
38118;DHT22;23928;47.562;7.508;2023-05-07T10:26:43;19.30;99.90
38118;DHT22;23928;47.562;7.508;2023-05-07T10:29:51;19.20;99.90
38118;DHT22;23928;47.562;7.508;2023-05-07T10:32:42;19.30;99.90
38118;DHT22;23928;47.562;7.508;2023-05-07T10:35:16;19.30;99.90
38118;DHT22;23928;47.562;7.508;2023-05-07T10:37:43;19.10;99.90
38118;DHT22;23928;47.562;7.508;2023-05-07T10:40:10;19.00;99.90
38118;DHT22;23928;47.562;7.508;2023-05-07T10:42:36;19.10;99.90
38118;DHT22;23928;47.562;7.508;2023-05-07T10:45:14;18.90;99.90
38118;DHT22;23928;47.562;7.508;2023-05-07T10:48:10;18.80;99.90
38118;DHT22;23928;47.562;7.508;2023-05-07T10:50:36;19.10;99.90
38118;DHT22;23928;47.562;7.508;2023-05-07T10:56:36;19.20;99.90
38118;DHT22;23928;47.562;7.508;2023-05-07T10:58:55;18.70;99.90
38118;DHT22;23928;47.562;7.508;2023-05-07T11:02:00;18.80;99.90
38118;DHT22;23928;47.562;7.508;2023-05-07T11:04:25;18.90;99.90
38118;DHT22;23928;47.562;7.508;2023-05-07T11:15:15;19.00;99.90
38118;DHT22;23928;47.562;7.508;2023-05-07T11:17:59;18.80;99.90
38118;DHT22;23928;47.562;7.508;2023-05-07T11:20:47;19.00;99.90
38118;DHT22;23928;47.562;7.508;2023-05-07T11:28:28;19.20;99.90
38118;DHT22;23928;47.562;7.508;2023-05-07T11:30:54;19.00;99.90
38118;DHT22;23928;47.562;7.508;2023-05-07T11:33:20;19.00;99.90
38118;DHT22;23928;47.562;7.508;2023-05-07T11:35:46;18.80;99.90
38118;DHT22;23928;47.562;7.508;2023-05-07T11:38:13;19.10;99.90
38118;DHT22;23928;47.562;7.508;2023-05-07T11:40:58;18.60;99.90
38118;DHT22;23928;47.562;7.508;2023-05-07T11:43:26;18.70;99.90
38118;DHT22;23928;47.562;7.508;2023-05-07T11:45:52;18.70;99.90
38118;DHT22;23928;47.562;7.508;2023-05-07T11:48:18;18.50;99.90
38118;DHT22;23928;47.562;7.508;2023-05-07T11:50:52;18.40;99.90
38118;DHT22;23928;47.562;7.508;2023-05-07T11:53:19;18.50;99.90
38118;DHT22;23928;47.562;7.508;2023-05-07T11:55:45;18.30;99.90
38118;DHT22;23928;47.562;7.508;2023-05-07T11:58:12;18.40;99.90
38118;DHT22;23928;47.562;7.508;2023-05-07T12:00:38;18.10;99.90
38118;DHT22;23928;47.562;7.508;2023-05-07T12:03:04;17.80;99.90
38118;DHT22;23928;47.562;7.508;2023-05-07T12:05:30;17.80;99.90
38118;DHT22;23928;47.562;7.508;2023-05-07T12:07:59;17.50;99.90
38118;DHT22;23928;47.562;7.508;2023-05-07T12:10:25;17.50;99.90
38118;DHT22;23928;47.562;7.508;2023-05-07T12:12:50;17.60;99.90
38118;DHT22;23928;47.562;7.508;2023-05-07T12:15:22;17.60;99.90
38118;DHT22;23928;47.562;7.508;2023-05-07T12:17:48;17.40;99.90
38118;DHT22;23928;47.562;7.508;2023-05-07T12:20:14;17.20;99.90
38118;DHT22;23928;47.562;7.508;2023-05-07T12:22:41;17.40;99.90
38118;DHT22;23928;47.562;7.508;2023-05-07T12:25:07;17.20;99.90
38118;DHT22;23928;47.562;7.508;2023-05-07T12:27:36;17.40;99.90
38118;DHT22;23928;47.562;7.508;2023-05-07T12:30:03;17.40;99.90
38118;DHT22;23928;47.562;7.508;2023-05-07T12:32:29;17.60;99.90
38118;DHT22;23928;47.562;7.508;2023-05-07T12:34:55;17.80;99.90
38118;DHT22;23928;47.562;7.508;2023-05-07T12:37:24;17.90;99.90
38118;DHT22;23928;47.562;7.508;2023-05-07T12:40:10;18.20;99.90
38118;DHT22;23928;47.562;7.508;2023-05-07T12:42:37;18.30;99.90
38118;DHT22;23928;47.562;7.508;2023-05-07T12:45:15;18.50;99.90
38118;DHT22;23928;47.562;7.508;2023-05-07T12:47:47;18.50;99.90
38118;DHT22;23928;47.562;7.508;2023-05-07T12:50:16;18.50;99.90
38118;DHT22;23928;47.562;7.508;2023-05-07T12:52:46;18.80;99.90
38118;DHT22;23928;47.562;7.508;2023-05-07T12:55:14;18.90;99.90
38118;DHT22;23928;47.562;7.508;2023-05-07T12:57:47;18.90;99.90
38118;DHT22;23928;47.562;7.508;2023-05-07T13:00:13;19.00;99.90
38118;DHT22;23928;47.562;7.508;2023-05-07T13:02:40;19.40;99.90
38118;DHT22;23928;47.562;7.508;2023-05-07T13:05:07;19.70;99.90
38118;DHT22;23928;47.562;7.508;2023-05-07T13:07:32;19.80;99.90
38118;DHT22;23928;47.562;7.508;2023-05-07T13:09:58;20.40;99.90
38118;DHT22;23928;47.562;7.508;2023-05-07T13:12:24;21.10;99.90
38118;DHT22;23928;47.562;7.508;2023-05-07T13:14:49;21.30;99.90
38118;DHT22;23928;47.562;7.508;2023-05-07T13:17:15;21.30;99.90
38118;DHT22;23928;47.562;7.508;2023-05-07T13:19:40;21.40;99.90
38118;DHT22;23928;47.562;7.508;2023-05-07T13:22:06;21.30;99.90
38118;DHT22;23928;47.562;7.508;2023-05-07T13:24:32;22.00;99.90
38118;DHT22;23928;47.562;7.508;2023-05-07T13:26:57;21.50;99.90
38118;DHT22;23928;47.562;7.508;2023-05-07T13:29:23;21.10;99.90
38118;DHT22;23928;47.562;7.508;2023-05-07T13:31:54;21.10;99.90
38118;DHT22;23928;47.562;7.508;2023-05-07T13:34:20;20.50;99.90
38118;DHT22;23928;47.562;7.508;2023-05-07T13:36:45;20.50;99.90
38118;DHT22;23928;47.562;7.508;2023-05-07T13:39:11;20.90;99.90
38118;DHT22;23928;47.562;7.508;2023-05-07T13:41:36;20.90;99.90
38118;DHT22;23928;47.562;7.508;2023-05-07T13:44:02;20.90;99.90
38118;DHT22;23928;47.562;7.508;2023-05-07T13:46:28;21.20;99.90
38118;DHT22;23928;47.562;7.508;2023-05-07T13:48:55;21.60;99.90
38118;DHT22;23928;47.562;7.508;2023-05-07T13:51:20;22.10;99.90
38118;DHT22;23928;47.562;7.508;2023-05-07T13:53:47;22.30;99.90
38118;DHT22;23928;47.562;7.508;2023-05-07T13:56:12;21.90;99.90
38118;DHT22;23928;47.562;7.508;2023-05-07T13:58:39;22.10;99.90
38118;DHT22;23928;47.562;7.508;2023-05-07T14:01:05;21.40;99.90
38118;DHT22;23928;47.562;7.508;2023-05-07T14:03:30;21.50;99.90
38118;DHT22;23928;47.562;7.508;2023-05-07T14:05:58;21.30;99.90
38118;DHT22;23928;47.562;7.508;2023-05-07T14:08:25;21.40;99.90
38118;DHT22;23928;47.562;7.508;2023-05-07T14:10:51;21.70;99.90
38118;DHT22;23928;47.562;7.508;2023-05-07T14:13:17;22.40;99.90
38118;DHT22;23928;47.562;7.508;2023-05-07T14:15:42;22.90;99.90
38118;DHT22;23928;47.562;7.508;2023-05-07T14:18:15;23.30;99.90
38118;DHT22;23928;47.562;7.508;2023-05-07T14:20:40;23.80;99.90
38118;DHT22;23928;47.562;7.508;2023-05-07T14:23:06;23.20;99.90
38118;DHT22;23928;47.562;7.508;2023-05-07T14:25:32;21.70;99.90
38118;DHT22;23928;47.562;7.508;2023-05-07T14:27:57;21.70;99.90
38118;DHT22;23928;47.562;7.508;2023-05-07T14:30:23;21.80;99.90
38118;DHT22;23928;47.562;7.508;2023-05-07T14:32:50;21.30;99.90
38118;DHT22;23928;47.562;7.508;2023-05-07T14:35:16;20.90;99.90
38118;DHT22;23928;47.562;7.508;2023-05-07T14:37:42;20.50;99.90
38118;DHT22;23928;47.562;7.508;2023-05-07T14:40:08;21.30;99.90
38118;DHT22;23928;47.562;7.508;2023-05-07T14:42:34;21.60;99.90
38118;DHT22;23928;47.562;7.508;2023-05-07T14:45:00;21.40;99.90
38118;DHT22;23928;47.562;7.508;2023-05-07T14:47:25;21.40;99.90
38118;DHT22;23928;47.562;7.508;2023-05-07T14:49:51;21.30;99.90
38118;DHT22;23928;47.562;7.508;2023-05-07T14:52:18;21.50;99.90
38118;DHT22;23928;47.562;7.508;2023-05-07T14:54:44;21.40;99.90
38118;DHT22;23928;47.562;7.508;2023-05-07T14:57:10;21.10;99.90
38118;DHT22;23928;47.562;7.508;2023-05-07T14:59:38;20.90;99.90
38118;DHT22;23928;47.562;7.508;2023-05-07T15:02:04;20.80;99.90
38118;DHT22;23928;47.562;7.508;2023-05-07T15:04:30;20.60;99.90
38118;DHT22;23928;47.562;7.508;2023-05-07T15:06:56;20.40;99.90
38118;DHT22;23928;47.562;7.508;2023-05-07T15:09:22;20.40;99.90
38118;DHT22;23928;47.562;7.508;2023-05-07T15:11:47;20.30;99.90
38118;DHT22;23928;47.562;7.508;2023-05-07T15:14:13;20.30;99.90
38118;DHT22;23928;47.562;7.508;2023-05-07T15:16:38;20.10;99.90
38118;DHT22;23928;47.562;7.508;2023-05-07T15:19:04;20.20;99.90
38118;DHT22;23928;47.562;7.508;2023-05-07T15:21:30;20.00;99.90
38118;DHT22;23928;47.562;7.508;2023-05-07T15:23:58;19.80;99.90
38118;DHT22;23928;47.562;7.508;2023-05-07T15:26:23;19.50;99.90
38118;DHT22;23928;47.562;7.508;2023-05-07T15:28:49;19.40;99.90
38118;DHT22;23928;47.562;7.508;2023-05-07T15:31:15;19.40;99.90
38118;DHT22;23928;47.562;7.508;2023-05-07T15:33:42;19.40;99.90
38118;DHT22;23928;47.562;7.508;2023-05-07T15:36:07;19.30;99.90
38118;DHT22;23928;47.562;7.508;2023-05-07T15:38:33;19.30;99.90
38118;DHT22;23928;47.562;7.508;2023-05-07T15:40:59;19.10;99.90
38118;DHT22;23928;47.562;7.508;2023-05-07T15:43:25;19.10;99.90
38118;DHT22;23928;47.562;7.508;2023-05-07T15:45:51;18.90;99.90